Algowood — VCTD — position and weather

sailwx.info

Track history (hours):
 
Tides and Currents Weather Stations Pressure Air Temp Water Temp Dewpoint Dewpoint Depression Visibility Wind Speed Wind Dir Waves Ship Positions

Algowood

Last reported at 2014-Aug-19 09:18 UTC. Time now 2014-Aug-20 08:55 UTC.
Position N 45°58' W 083°54'.

Length 223 m; draft 8.1 m.

Type: Cargo ship. MMSI: 316001802.

Date/timePositionNaut miles runAvg speedWind from/ knotsBaromVisibWave heightAir tempDewpointWater temp
2014-Aug-19 09:18N 45°58' W 083°54'  
2014-Aug-16 02:33N 46°53' W 084°59'2411.5
2014-Aug-16 00:30N 46°33' W 084°40'1010.0
2014-Aug-15 23:33N 46°27' W 084°29'13 4.3
2014-Aug-15 20:33N 46°22' W 084°12'9 6.9
2014-Aug-15 19:15N 46°13' W 084°07'7 9.7
2014-Aug-15 18:33N 46°08' W 084°01'9 9.0
2014-Aug-15 17:30N 46°00' W 083°53'  
2014-Aug-12 12:19N 43°18' W 079°28'16 2.5
2014-Aug-12 06:05N 43°08' W 079°12'0 0.0
2014-Aug-12 05:32N 43°08' W 079°12'0 0.2
2014-Aug-12 04:33N 43°08' W 079°12'1 0.7
2014-Aug-12 03:33N 43°07' W 079°12'236 4.9
2014-Aug-10 03:33N 45°36' W 083°27'1111.5
2014-Aug-10 02:33N 45°45' W 083°38'1211.6
2014-Aug-10 01:33N 45°53' W 083°49'1110.3
2014-Aug-10 00:27N 46°03' W 083°58'8 9.1
2014-Aug-09 23:33N 46°10' W 084°04'38 5.3
2014-Aug-09 16:22N 46°36' W 084°44'11 9.8
2014-Aug-09 15:16N 46°45' W 084°53'7 9.5
2014-Aug-09 14:33N 46°50' W 084°60'1111.1
2014-Aug-09 13:33N 46°55' W 085°14'1111.3
2014-Aug-09 12:33N 47°00' W 085°28'1211.4
2014-Aug-09 11:29N 47°06' W 085°44'  
Track history (hours):
 
Tides and Currents Weather Stations Pressure Air Temp Water Temp Dewpoint Dewpoint Depression Visibility Wind Speed Wind Dir Waves Ship Positions

Algowood

Last reported at 2014-Aug-19 09:18 UTC. Time now 2014-Aug-20 08:55 UTC.
Position N 45°58' W 083°54'.

Length 223 m; draft 8.1 m.

Type: Cargo ship. MMSI: 316001802.

Date/timePositionNaut miles runAvg speedWind from/ knotsBaromVisibWave heightAir tempDewpointWater temp
2014-Aug-19 09:18N 45°58' W 083°54'  
2014-Aug-16 02:33N 46°53' W 084°59'2411.5
2014-Aug-16 00:30N 46°33' W 084°40'1010.0
2014-Aug-15 23:33N 46°27' W 084°29'13 4.3
2014-Aug-15 20:33N 46°22' W 084°12'9 6.9
2014-Aug-15 19:15N 46°13' W 084°07'7 9.7
2014-Aug-15 18:33N 46°08' W 084°01'9 9.0
2014-Aug-15 17:30N 46°00' W 083°53'  
2014-Aug-12 12:19N 43°18' W 079°28'16 2.5
2014-Aug-12 06:05N 43°08' W 079°12'0 0.0
2014-Aug-12 05:32N 43°08' W 079°12'0 0.2
2014-Aug-12 04:33N 43°08' W 079°12'1 0.7
2014-Aug-12 03:33N 43°07' W 079°12'236 4.9
2014-Aug-10 03:33N 45°36' W 083°27'1111.5
2014-Aug-10 02:33N 45°45' W 083°38'1211.6
2014-Aug-10 01:33N 45°53' W 083°49'1110.3
2014-Aug-10 00:27N 46°03' W 083°58'8 9.1
2014-Aug-09 23:33N 46°10' W 084°04'38 5.3
2014-Aug-09 16:22N 46°36' W 084°44'11 9.8
2014-Aug-09 15:16N 46°45' W 084°53'7 9.5
2014-Aug-09 14:33N 46°50' W 084°60'1111.1
2014-Aug-09 13:33N 46°55' W 085°14'1111.3
2014-Aug-09 12:33N 47°00' W 085°28'1211.4
2014-Aug-09 11:29N 47°06' W 085°44'  

Dump ship's entire track history